METAR Data
IDs: Format: Raw Decoded Include TAF

Data at: 0428 UTC 30 Jun 2022

KEMT 300257Z 21006KT 10SM CLR 27/15 A2998
No TAF found for KEMT

KONT 300353Z 27010KT 10SM FEW180 26/13 A2998 RMK AO2 SLP136 T02610128

KONT 292336Z 3000/0106 25014KT P6SM FEW120 FEW180
  FM300500 24005KT P6SM SKC
  FM301300 VRB03KT 5SM HZ SCT009
  FM301600 24005KT P6SM SKC
  FM302100 26011G18KT P6SM SKC
  FM010400 24005KT P6SM SKC


KBUR 300359Z 20006KT 10SM CLR 25/15 A2999 RMK AO2 T02500150 $

KBUR 292340Z 3000/3024 17009KT P6SM SKC
  FM300200 12006KT P6SM SKC
  FM300700 VRB03KT P6SM SKC
  FM301000 VRB03KT 6SM BR BKN008
  FM301500 VRB03KT P6SM SKC
  FM301800 14006KT P6SM SKC
  FM302100 18010KT P6SM SKC


KLGB 300353Z 28007KT 10SM CLR 22/17 A2998 RMK AO2 SLP151 T02170167

KLGB 292340Z 3000/3024 29009KT P6SM SKC
  FM300500 VRB03KT P6SM SKC
  FM300700 VRB03KT P6SM OVC008
  FM301400 VRB03KT P6SM OVC011
  FM301700 20007KT P6SM SKC
  FM302300 29009KT P6SM SKC


KFUL 300353Z 20006KT 10SM CLR 21/17 A2997 RMK AO2 SLP149 T02110167 $
No TAF found for KFUL

KPOC 300347Z 25008KT 10SM CLR 25/10 A3002 RMK LAST
No TAF found for KPOC

KCQT 300347Z AUTO 26003KT 8SM CLR 21/17 A2998 RMK AO2 SLP149 T02060167 $
No TAF found for KCQT